sensor_id;sensor_type;location;lat;lon;timestamp;P1;durP1;ratioP1;P2;durP2;ratioP2
56746;SDS011;42623;49.978;9.966;2024-01-06T00:00:09;6.43;;;3.80;;
56746;SDS011;42623;49.978;9.966;2024-01-06T00:00:20;7.15;;;3.85;;
56746;SDS011;42623;49.978;9.966;2024-01-06T00:00:32;8.75;;;4.20;;
56746;SDS011;42623;49.978;9.966;2024-01-06T00:00:43;8.20;;;3.93;;
56746;SDS011;42623;49.978;9.966;2024-01-06T00:00:53;7.03;;;3.90;;
56746;SDS011;42623;49.978;9.966;2024-01-06T00:01:03;6.20;;;4.00;;
56746;SDS011;42623;49.978;9.966;2024-01-06T00:01:13;6.27;;;4.27;;
56746;SDS011;42623;49.978;9.966;2024-01-06T00:01:25;7.00;;;4.70;;
56746;SDS011;42623;49.978;9.966;2024-01-06T00:01:35;7.37;;;4.60;;
56746;SDS011;42623;49.978;9.966;2024-01-06T00:01:45;7.47;;;4.30;;
56746;SDS011;42623;49.978;9.966;2024-01-06T00:01:55;7.00;;;3.87;;
56746;SDS011;42623;49.978;9.966;2024-01-06T00:02:05;7.90;;;3.90;;
56746;SDS011;42623;49.978;9.966;2024-01-06T00:02:16;8.25;;;4.22;;
56746;SDS011;42623;49.978;9.966;2024-01-06T00:02:26;8.43;;;4.70;;
56746;SDS011;42623;49.978;9.966;2024-01-06T00:02:36;8.30;;;4.88;;
56746;SDS011;42623;49.978;9.966;2024-01-06T00:02:47;8.13;;;4.93;;
56746;SDS011;42623;49.978;9.966;2024-01-06T00:02:57;6.90;;;4.03;;
56746;SDS011;42623;49.978;9.966;2024-01-06T00:03:07;6.80;;;4.00;;
56746;SDS011;42623;49.978;9.966;2024-01-06T00:03:17;6.80;;;3.63;;
56746;SDS011;42623;49.978;9.966;2024-01-06T00:03:27;7.13;;;4.00;;
56746;SDS011;42623;49.978;9.966;2024-01-06T00:03:38;6.60;;;3.70;;
56746;SDS011;42623;49.978;9.966;2024-01-06T00:03:48;7.17;;;4.00;;
56746;SDS011;42623;49.978;9.966;2024-01-06T00:03:58;7.38;;;4.18;;
56746;SDS011;42623;49.978;9.966;2024-01-06T00:04:08;7.43;;;4.33;;
56746;SDS011;42623;49.978;9.966;2024-01-06T00:04:18;7.20;;;4.27;;
56746;SDS011;42623;49.978;9.966;2024-01-06T00:04:29;7.00;;;4.30;;
56746;SDS011;42623;49.978;9.966;2024-01-06T00:04:39;7.23;;;4.40;;
56746;SDS011;42623;49.978;9.966;2024-01-06T00:04:49;6.90;;;4.37;;
56746;SDS011;42623;49.978;9.966;2024-01-06T00:04:59;8.20;;;4.30;;
56746;SDS011;42623;49.978;9.966;2024-01-06T00:05:09;8.77;;;4.23;;
56746;SDS011;42623;49.978;9.966;2024-01-06T00:05:19;8.90;;;4.10;;
56746;SDS011;42623;49.978;9.966;2024-01-06T00:05:30;7.35;;;4.00;;
56746;SDS011;42623;49.978;9.966;2024-01-06T00:05:40;7.33;;;4.10;;
56746;SDS011;42623;49.978;9.966;2024-01-06T00:05:50;6.87;;;3.93;;
56746;SDS011;42623;49.978;9.966;2024-01-06T00:06:00;6.68;;;3.88;;
56746;SDS011;42623;49.978;9.966;2024-01-06T00:06:14;6.73;;;3.93;;
56746;SDS011;42623;49.978;9.966;2024-01-06T00:06:24;7.70;;;4.65;;
56746;SDS011;42623;49.978;9.966;2024-01-06T00:06:34;7.93;;;4.70;;
56746;SDS011;42623;49.978;9.966;2024-01-06T00:06:44;6.80;;;4.50;;
56746;SDS011;42623;49.978;9.966;2024-01-06T00:06:55;6.27;;;4.03;;
56746;SDS011;42623;49.978;9.966;2024-01-06T00:07:05;6.70;;;4.40;;
56746;SDS011;42623;49.978;9.966;2024-01-06T00:07:15;6.90;;;4.47;;
56746;SDS011;42623;49.978;9.966;2024-01-06T00:07:25;7.33;;;4.60;;
56746;SDS011;42623;49.978;9.966;2024-01-06T00:07:35;7.67;;;4.47;;
56746;SDS011;42623;49.978;9.966;2024-01-06T00:07:46;7.40;;;4.28;;
56746;SDS011;42623;49.978;9.966;2024-01-06T00:07:56;7.03;;;4.47;;
56746;SDS011;42623;49.978;9.966;2024-01-06T00:08:06;6.07;;;4.30;;
56746;SDS011;42623;49.978;9.966;2024-01-06T00:08:16;6.13;;;4.50;;
56746;SDS011;42623;49.978;9.966;2024-01-06T00:08:26;6.32;;;4.35;;
56746;SDS011;42623;49.978;9.966;2024-01-06T00:08:37;7.43;;;4.83;;
56746;SDS011;42623;49.978;9.966;2024-01-06T00:08:47;7.60;;;4.93;;
56746;SDS011;42623;49.978;9.966;2024-01-06T00:09:03;8.02;;;4.97;;
56746;SDS011;42623;49.978;9.966;2024-01-06T00:09:13;7.83;;;4.83;;
56746;SDS011;42623;49.978;9.966;2024-01-06T00:09:24;7.20;;;4.43;;
56746;SDS011;42623;49.978;9.966;2024-01-06T00:09:34;7.23;;;4.17;;
56746;SDS011;42623;49.978;9.966;2024-01-06T00:09:44;7.25;;;4.15;;
56746;SDS011;42623;49.978;9.966;2024-01-06T00:09:54;7.80;;;4.43;;
56746;SDS011;42623;49.978;9.966;2024-01-06T00:10:05;8.10;;;4.40;;
56746;SDS011;42623;49.978;9.966;2024-01-06T00:10:15;9.75;;;5.05;;
56746;SDS011;42623;49.978;9.966;2024-01-06T00:10:25;9.20;;;5.07;;
56746;SDS011;42623;49.978;9.966;2024-01-06T00:10:36;8.40;;;5.05;;
56746;SDS011;42623;49.978;9.966;2024-01-06T00:10:46;9.00;;;4.60;;
56746;SDS011;42623;49.978;9.966;2024-01-06T00:10:56;8.83;;;4.57;;
56746;SDS011;42623;49.978;9.966;2024-01-06T00:11:07;8.50;;;4.43;;
56746;SDS011;42623;49.978;9.966;2024-01-06T00:11:17;7.50;;;4.80;;
56746;SDS011;42623;49.978;9.966;2024-01-06T00:11:27;8.35;;;4.82;;
56746;SDS011;42623;49.978;9.966;2024-01-06T00:11:38;8.07;;;4.87;;
56746;SDS011;42623;49.978;9.966;2024-01-06T00:11:48;7.47;;;4.43;;
56746;SDS011;42623;49.978;9.966;2024-01-06T00:11:58;6.43;;;4.07;;
56746;SDS011;42623;49.978;9.966;2024-01-06T00:12:08;6.33;;;3.77;;
56746;SDS011;42623;49.978;9.966;2024-01-06T00:12:18;5.97;;;3.47;;
56746;SDS011;42623;49.978;9.966;2024-01-06T00:12:29;6.55;;;3.70;;
56746;SDS011;42623;49.978;9.966;2024-01-06T00:12:39;6.87;;;3.80;;
56746;SDS011;42623;49.978;9.966;2024-01-06T00:12:49;7.40;;;3.80;;
56746;SDS011;42623;49.978;9.966;2024-01-06T00:13:00;6.90;;;3.80;;
56746;SDS011;42623;49.978;9.966;2024-01-06T00:13:10;7.37;;;4.17;;
56746;SDS011;42623;49.978;9.966;2024-01-06T00:13:20;7.50;;;4.38;;
56746;SDS011;42623;49.978;9.966;2024-01-06T00:13:30;8.37;;;4.70;;
56746;SDS011;42623;49.978;9.966;2024-01-06T00:13:41;7.82;;;4.28;;
56746;SDS011;42623;49.978;9.966;2024-01-06T00:13:51;7.10;;;4.03;;
56746;SDS011;42623;49.978;9.966;2024-01-06T00:14:01;7.30;;;4.00;;
56746;SDS011;42623;49.978;9.966;2024-01-06T00:14:11;7.63;;;4.30;;
56746;SDS011;42623;49.978;9.966;2024-01-06T00:14:21;8.38;;;4.38;;
56746;SDS011;42623;49.978;9.966;2024-01-06T00:14:32;8.00;;;4.17;;
56746;SDS011;42623;49.978;9.966;2024-01-06T00:14:42;7.23;;;3.80;;
56746;SDS011;42623;49.978;9.966;2024-01-06T00:14:55;6.43;;;3.83;;
56746;SDS011;42623;49.978;9.966;2024-01-06T00:15:05;6.97;;;3.95;;
56746;SDS011;42623;49.978;9.966;2024-01-06T00:15:16;6.60;;;3.70;;
56746;SDS011;42623;49.978;9.966;2024-01-06T00:15:26;6.28;;;3.55;;
56746;SDS011;42623;49.978;9.966;2024-01-06T00:15:36;5.73;;;3.50;;
56746;SDS011;42623;49.978;9.966;2024-01-06T00:15:47;6.70;;;4.22;;
56746;SDS011;42623;49.978;9.966;2024-01-06T00:15:57;7.10;;;4.50;;
56746;SDS011;42623;49.978;9.966;2024-01-06T00:16:08;8.40;;;5.03;;
56746;SDS011;42623;49.978;9.966;2024-01-06T00:16:19;7.60;;;4.63;;
56746;SDS011;42623;49.978;9.966;2024-01-06T00:16:29;8.23;;;4.78;;
56746;SDS011;42623;49.978;9.966;2024-01-06T00:16:40;7.93;;;4.57;;
56746;SDS011;42623;49.978;9.966;2024-01-06T00:16:50;8.17;;;4.70;;
56746;SDS011;42623;49.978;9.966;2024-01-06T00:17:00;8.57;;;4.93;;
56746;SDS011;42623;49.978;9.966;2024-01-06T00:17:11;9.30;;;5.50;;
56746;SDS011;42623;49.978;9.966;2024-01-06T00:17:21;10.55;;;6.57;;
56746;SDS011;42623;49.978;9.966;2024-01-06T00:17:31;10.57;;;7.23;;
56746;SDS011;42623;49.978;9.966;2024-01-06T00:17:41;10.63;;;7.63;;
56746;SDS011;42623;49.978;9.966;2024-01-06T00:17:52;10.87;;;7.70;;
56746;SDS011;42623;49.978;9.966;2024-01-06T00:18:02;10.63;;;7.60;;
56746;SDS011;42623;49.978;9.966;2024-01-06T00:18:12;10.60;;;7.30;;
56746;SDS011;42623;49.978;9.966;2024-01-06T00:18:22;9.60;;;7.10;;
56746;SDS011;42623;49.978;9.966;2024-01-06T00:18:32;10.77;;;7.47;;
56746;SDS011;42623;49.978;9.966;2024-01-06T00:18:43;10.40;;;7.17;;
56746;SDS011;42623;49.978;9.966;2024-01-06T00:18:53;10.15;;;6.85;;
56746;SDS011;42623;49.978;9.966;2024-01-06T00:19:03;8.40;;;5.80;;
56746;SDS011;42623;49.978;9.966;2024-01-06T00:19:13;8.23;;;5.77;;
56746;SDS011;42623;49.978;9.966;2024-01-06T00:19:24;7.07;;;4.63;;
56746;SDS011;42623;49.978;9.966;2024-01-06T00:19:34;7.18;;;4.75;;
56746;SDS011;42623;49.978;9.966;2024-01-06T00:19:44;8.90;;;7.10;;
56746;SDS011;42623;49.978;9.966;2024-01-06T00:19:54;11.20;;;9.33;;
56746;SDS011;42623;49.978;9.966;2024-01-06T00:20:05;12.90;;;10.57;;
56746;SDS011;42623;49.978;9.966;2024-01-06T00:20:15;11.45;;;9.00;;
56746;SDS011;42623;49.978;9.966;2024-01-06T00:20:26;10.77;;;8.17;;
56746;SDS011;42623;49.978;9.966;2024-01-06T00:20:36;9.87;;;6.97;;
56746;SDS011;42623;49.978;9.966;2024-01-06T00:20:46;9.00;;;6.03;;
56746;SDS011;42623;49.978;9.966;2024-01-06T00:20:56;7.90;;;5.07;;
56746;SDS011;42623;49.978;9.966;2024-01-06T00:21:06;7.17;;;4.83;;
56746;SDS011;42623;49.978;9.966;2024-01-06T00:21:17;7.53;;;5.07;;
56746;SDS011;42623;49.978;9.966;2024-01-06T00:21:28;9.23;;;5.23;;
56746;SDS011;42623;49.978;9.966;2024-01-06T00:21:38;9.13;;;5.17;;
56746;SDS011;42623;49.978;9.966;2024-01-06T00:21:48;8.32;;;4.65;;
56746;SDS011;42623;49.978;9.966;2024-01-06T00:21:59;7.07;;;4.47;;
56746;SDS011;42623;49.978;9.966;2024-01-06T00:22:10;6.72;;;4.32;;
56746;SDS011;42623;49.978;9.966;2024-01-06T00:22:20;6.77;;;4.23;;
56746;SDS011;42623;49.978;9.966;2024-01-06T00:22:31;6.68;;;4.28;;
56746;SDS011;42623;49.978;9.966;2024-01-06T00:22:41;6.97;;;4.53;;
56746;SDS011;42623;49.978;9.966;2024-01-06T00:22:52;7.10;;;4.70;;
56746;SDS011;42623;49.978;9.966;2024-01-06T00:23:02;7.87;;;4.97;;
56746;SDS011;42623;49.978;9.966;2024-01-06T00:23:13;7.95;;;4.93;;
56746;SDS011;42623;49.978;9.966;2024-01-06T00:23:23;7.87;;;4.93;;
56746;SDS011;42623;49.978;9.966;2024-01-06T00:23:33;7.47;;;5.13;;
56746;SDS011;42623;49.978;9.966;2024-01-06T00:23:43;8.75;;;6.03;;
56746;SDS011;42623;49.978;9.966;2024-01-06T00:23:53;8.80;;;6.20;;
56746;SDS011;42623;49.978;9.966;2024-01-06T00:24:05;8.77;;;6.07;;
56746;SDS011;42623;49.978;9.966;2024-01-06T00:24:16;7.53;;;5.50;;
56746;SDS011;42623;49.978;9.966;2024-01-06T00:24:26;9.30;;;6.38;;
56746;SDS011;42623;49.978;9.966;2024-01-06T00:24:36;9.27;;;6.13;;
56746;SDS011;42623;49.978;9.966;2024-01-06T00:24:46;9.30;;;6.27;;
56746;SDS011;42623;49.978;9.966;2024-01-06T00:24:56;7.63;;;5.10;;
56746;SDS011;42623;49.978;9.966;2024-01-06T00:25:07;7.40;;;5.00;;
56746;SDS011;42623;49.978;9.966;2024-01-06T00:25:17;7.80;;;4.90;;
56746;SDS011;42623;49.978;9.966;2024-01-06T00:25:27;8.00;;;5.20;;
56746;SDS011;42623;49.978;9.966;2024-01-06T00:25:37;8.27;;;5.23;;
56746;SDS011;42623;49.978;9.966;2024-01-06T00:25:47;8.65;;;5.35;;
56746;SDS011;42623;49.978;9.966;2024-01-06T00:25:58;8.57;;;5.47;;
56746;SDS011;42623;49.978;9.966;2024-01-06T00:26:09;12.60;;;6.13;;
56746;SDS011;42623;49.978;9.966;2024-01-06T00:26:19;12.52;;;6.05;;
56746;SDS011;42623;49.978;9.966;2024-01-06T00:26:29;12.48;;;5.75;;
56746;SDS011;42623;49.978;9.966;2024-01-06T00:26:39;9.03;;;5.23;;
56746;SDS011;42623;49.978;9.966;2024-01-06T00:26:50;8.93;;;5.40;;
56746;SDS011;42623;49.978;9.966;2024-01-06T00:27:00;9.23;;;5.47;;
56746;SDS011;42623;49.978;9.966;2024-01-06T00:27:10;8.02;;;5.40;;
56746;SDS011;42623;49.978;9.966;2024-01-06T00:27:20;7.87;;;5.20;;
56746;SDS011;42623;49.978;9.966;2024-01-06T00:27:30;7.90;;;4.87;;
56746;SDS011;42623;49.978;9.966;2024-01-06T00:27:41;7.53;;;4.27;;
56746;SDS011;42623;49.978;9.966;2024-01-06T00:27:51;8.00;;;4.53;;
56746;SDS011;42623;49.978;9.966;2024-01-06T00:28:01;7.83;;;5.10;;
56746;SDS011;42623;49.978;9.966;2024-01-06T00:28:11;7.90;;;5.07;;
56746;SDS011;42623;49.978;9.966;2024-01-06T00:28:21;7.53;;;4.93;;
56746;SDS011;42623;49.978;9.966;2024-01-06T00:28:31;7.53;;;4.80;;
56746;SDS011;42623;49.978;9.966;2024-01-06T00:28:42;7.38;;;5.00;;
56746;SDS011;42623;49.978;9.966;2024-01-06T00:28:52;8.43;;;5.17;;
56746;SDS011;42623;49.978;9.966;2024-01-06T00:29:02;8.57;;;4.93;;
56746;SDS011;42623;49.978;9.966;2024-01-06T00:29:12;9.15;;;5.07;;
56746;SDS011;42623;49.978;9.966;2024-01-06T00:29:22;10.40;;;5.50;;
56746;SDS011;42623;49.978;9.966;2024-01-06T00:29:33;11.40;;;6.63;;
56746;SDS011;42623;49.978;9.966;2024-01-06T00:29:43;11.73;;;6.90;;
56746;SDS011;42623;49.978;9.966;2024-01-06T00:29:53;11.10;;;7.20;;
56746;SDS011;42623;49.978;9.966;2024-01-06T00:30:03;11.90;;;7.37;;
56746;SDS011;42623;49.978;9.966;2024-01-06T00:30:14;12.60;;;7.73;;
56746;SDS011;42623;49.978;9.966;2024-01-06T00:30:24;13.47;;;8.00;;
56746;SDS011;42623;49.978;9.966;2024-01-06T00:30:34;11.97;;;7.63;;
56746;SDS011;42623;49.978;9.966;2024-01-06T00:30:44;11.20;;;7.50;;
56746;SDS011;42623;49.978;9.966;2024-01-06T00:30:55;9.50;;;7.33;;
56746;SDS011;42623;49.978;9.966;2024-01-06T00:31:05;9.18;;;6.72;;
56746;SDS011;42623;49.978;9.966;2024-01-06T00:31:16;9.27;;;6.53;;
56746;SDS011;42623;49.978;9.966;2024-01-06T00:31:29;9.02;;;6.00;;
56746;SDS011;42623;49.978;9.966;2024-01-06T00:31:39;10.03;;;6.10;;
56746;SDS011;42623;49.978;9.966;2024-01-06T00:31:50;9.73;;;6.05;;
56746;SDS011;42623;49.978;9.966;2024-01-06T00:32:00;9.30;;;5.83;;
56746;SDS011;42623;49.978;9.966;2024-01-06T00:32:10;8.50;;;5.70;;
56746;SDS011;42623;49.978;9.966;2024-01-06T00:32:20;7.90;;;5.43;;
56746;SDS011;42623;49.978;9.966;2024-01-06T00:32:31;7.80;;;5.47;;
56746;SDS011;42623;49.978;9.966;2024-01-06T00:32:41;8.47;;;5.33;;
56746;SDS011;42623;49.978;9.966;2024-01-06T00:32:51;8.43;;;5.22;;
56746;SDS011;42623;49.978;9.966;2024-01-06T00:33:01;9.13;;;6.27;;
56746;SDS011;42623;49.978;9.966;2024-01-06T00:33:12;9.03;;;6.97;;
56746;SDS011;42623;49.978;9.966;2024-01-06T00:33:22;9.80;;;6.97;;
56746;SDS011;42623;49.978;9.966;2024-01-06T00:33:32;9.07;;;6.20;;
56746;SDS011;42623;49.978;9.966;2024-01-06T00:33:42;9.87;;;5.93;;
56746;SDS011;42623;49.978;9.966;2024-01-06T00:33:53;9.40;;;6.10;;
56746;SDS011;42623;49.978;9.966;2024-01-06T00:34:03;9.17;;;5.67;;
56746;SDS011;42623;49.978;9.966;2024-01-06T00:34:13;8.03;;;5.13;;
56746;SDS011;42623;49.978;9.966;2024-01-06T00:34:23;7.27;;;4.90;;
56746;SDS011;42623;49.978;9.966;2024-01-06T00:34:33;7.60;;;4.72;;
56746;SDS011;42623;49.978;9.966;2024-01-06T00:34:44;7.80;;;4.67;;
56746;SDS011;42623;49.978;9.966;2024-01-06T00:34:54;8.67;;;4.93;;
56746;SDS011;42623;49.978;9.966;2024-01-06T00:35:04;7.47;;;4.63;;
56746;SDS011;42623;49.978;9.966;2024-01-06T00:35:14;7.43;;;4.37;;
56746;SDS011;42623;49.978;9.966;2024-01-06T00:35:25;6.97;;;4.13;;
56746;SDS011;42623;49.978;9.966;2024-01-06T00:35:35;7.30;;;4.40;;
56746;SDS011;42623;49.978;9.966;2024-01-06T00:35:45;7.57;;;4.70;;
56746;SDS011;42623;49.978;9.966;2024-01-06T00:35:55;8.07;;;4.97;;
56746;SDS011;42623;49.978;9.966;2024-01-06T00:36:07;7.90;;;4.93;;
56746;SDS011;42623;49.978;9.966;2024-01-06T00:36:17;7.43;;;4.43;;
56746;SDS011;42623;49.978;9.966;2024-01-06T00:36:27;7.70;;;4.80;;
56746;SDS011;42623;49.978;9.966;2024-01-06T00:36:37;8.00;;;4.83;;
56746;SDS011;42623;49.978;9.966;2024-01-06T00:36:47;7.60;;;4.87;;
56746;SDS011;42623;49.978;9.966;2024-01-06T00:36:58;8.35;;;4.60;;
56746;SDS011;42623;49.978;9.966;2024-01-06T00:37:08;8.10;;;4.07;;
56746;SDS011;42623;49.978;9.966;2024-01-06T00:37:18;7.90;;;4.32;;
56746;SDS011;42623;49.978;9.966;2024-01-06T00:37:29;7.93;;;4.27;;
56746;SDS011;42623;49.978;9.966;2024-01-06T00:37:39;7.80;;;4.47;;
56746;SDS011;42623;49.978;9.966;2024-01-06T00:37:49;8.00;;;4.47;;
56746;SDS011;42623;49.978;9.966;2024-01-06T00:37:59;7.03;;;4.33;;
56746;SDS011;42623;49.978;9.966;2024-01-06T00:38:10;6.90;;;4.07;;
56746;SDS011;42623;49.978;9.966;2024-01-06T00:38:20;7.57;;;4.30;;
56746;SDS011;42623;49.978;9.966;2024-01-06T00:38:30;8.63;;;4.60;;
56746;SDS011;42623;49.978;9.966;2024-01-06T00:38:41;8.43;;;4.73;;
56746;SDS011;42623;49.978;9.966;2024-01-06T00:38:51;8.27;;;4.30;;
56746;SDS011;42623;49.978;9.966;2024-01-06T00:39:01;8.17;;;4.30;;
56746;SDS011;42623;49.978;9.966;2024-01-06T00:39:11;8.67;;;4.07;;
56746;SDS011;42623;49.978;9.966;2024-01-06T00:39:21;7.83;;;3.87;;
56746;SDS011;42623;49.978;9.966;2024-01-06T00:39:32;6.87;;;3.57;;
56746;SDS011;42623;49.978;9.966;2024-01-06T00:39:42;6.30;;;3.60;;
56746;SDS011;42623;49.978;9.966;2024-01-06T00:39:52;5.97;;;3.73;;
56746;SDS011;42623;49.978;9.966;2024-01-06T00:40:02;6.67;;;4.10;;
56746;SDS011;42623;49.978;9.966;2024-01-06T00:40:13;6.93;;;4.30;;
56746;SDS011;42623;49.978;9.966;2024-01-06T00:40:23;7.05;;;4.25;;
56746;SDS011;42623;49.978;9.966;2024-01-06T00:40:34;6.37;;;3.93;;
56746;SDS011;42623;49.978;9.966;2024-01-06T00:40:44;6.00;;;3.63;;
56746;SDS011;42623;49.978;9.966;2024-01-06T00:40:54;6.55;;;3.80;;
56746;SDS011;42623;49.978;9.966;2024-01-06T00:41:05;7.30;;;3.77;;
56746;SDS011;42623;49.978;9.966;2024-01-06T00:41:15;7.33;;;3.83;;
56746;SDS011;42623;49.978;9.966;2024-01-06T00:41:25;6.90;;;3.60;;
56746;SDS011;42623;49.978;9.966;2024-01-06T00:41:36;5.50;;;3.27;;
56746;SDS011;42623;49.978;9.966;2024-01-06T00:41:46;5.57;;;3.38;;
56746;SDS011;42623;49.978;9.966;2024-01-06T00:41:56;5.70;;;3.43;;
56746;SDS011;42623;49.978;9.966;2024-01-06T00:42:06;7.47;;;3.90;;
56746;SDS011;42623;49.978;9.966;2024-01-06T00:42:16;7.63;;;4.03;;
56746;SDS011;42623;49.978;9.966;2024-01-06T00:42:27;8.40;;;4.23;;
56746;SDS011;42623;49.978;9.966;2024-01-06T00:42:37;7.67;;;4.43;;
56746;SDS011;42623;49.978;9.966;2024-01-06T00:42:47;7.33;;;4.27;;
56746;SDS011;42623;49.978;9.966;2024-01-06T00:42:57;6.60;;;4.17;;
56746;SDS011;42623;49.978;9.966;2024-01-06T00:43:08;7.47;;;3.88;;
56746;SDS011;42623;49.978;9.966;2024-01-06T00:43:18;7.47;;;3.93;;
56746;SDS011;42623;49.978;9.966;2024-01-06T00:43:28;7.17;;;3.50;;
56746;SDS011;42623;49.978;9.966;2024-01-06T00:43:38;5.97;;;3.30;;
56746;SDS011;42623;49.978;9.966;2024-01-06T00:43:48;5.90;;;3.33;;
56746;SDS011;42623;49.978;9.966;2024-01-06T00:43:59;6.63;;;3.83;;
56746;SDS011;42623;49.978;9.966;2024-01-06T00:44:09;7.70;;;4.55;;
56746;SDS011;42623;49.978;9.966;2024-01-06T00:44:20;9.83;;;6.60;;
56746;SDS011;42623;49.978;9.966;2024-01-06T00:44:30;11.23;;;7.53;;
56746;SDS011;42623;49.978;9.966;2024-01-06T00:44:40;11.07;;;7.57;;
56746;SDS011;42623;49.978;9.966;2024-01-06T00:44:51;11.50;;;7.10;;
56746;SDS011;42623;49.978;9.966;2024-01-06T00:45:01;11.57;;;7.45;;
56746;SDS011;42623;49.978;9.966;2024-01-06T00:45:11;11.27;;;7.40;;
56746;SDS011;42623;49.978;9.966;2024-01-06T00:45:21;10.40;;;6.90;;
56746;SDS011;42623;49.978;9.966;2024-01-06T00:45:32;8.85;;;5.78;;
56746;SDS011;42623;49.978;9.966;2024-01-06T00:45:42;8.20;;;4.97;;
56746;SDS011;42623;49.978;9.966;2024-01-06T00:45:53;7.88;;;4.07;;
56746;SDS011;42623;49.978;9.966;2024-01-06T00:46:03;7.90;;;4.00;;
56746;SDS011;42623;49.978;9.966;2024-01-06T00:46:13;7.10;;;3.83;;
56746;SDS011;42623;49.978;9.966;2024-01-06T00:46:23;6.28;;;3.83;;
56746;SDS011;42623;49.978;9.966;2024-01-06T00:46:34;5.87;;;3.57;;
56746;SDS011;42623;49.978;9.966;2024-01-06T00:46:44;5.47;;;3.30;;
56746;SDS011;42623;49.978;9.966;2024-01-06T00:46:54;6.65;;;3.53;;
56746;SDS011;42623;49.978;9.966;2024-01-06T00:47:05;6.60;;;3.53;;
56746;SDS011;42623;49.978;9.966;2024-01-06T00:47:15;7.30;;;4.10;;
56746;SDS011;42623;49.978;9.966;2024-01-06T00:47:25;6.40;;;4.17;;
56746;SDS011;42623;49.978;9.966;2024-01-06T00:47:35;6.40;;;4.10;;
56746;SDS011;42623;49.978;9.966;2024-01-06T00:47:46;7.03;;;4.17;;
56746;SDS011;42623;49.978;9.966;2024-01-06T00:47:56;7.32;;;4.07;;
56746;SDS011;42623;49.978;9.966;2024-01-06T00:48:06;7.57;;;4.10;;
56746;SDS011;42623;49.978;9.966;2024-01-06T00:48:16;6.90;;;3.67;;
56746;SDS011;42623;49.978;9.966;2024-01-06T00:48:27;6.30;;;3.33;;
56746;SDS011;42623;49.978;9.966;2024-01-06T00:48:37;6.30;;;3.47;;
56746;SDS011;42623;49.978;9.966;2024-01-06T00:48:47;6.53;;;3.77;;
56746;SDS011;42623;49.978;9.966;2024-01-06T00:48:57;7.27;;;4.10;;
56746;SDS011;42623;49.978;9.966;2024-01-06T00:49:07;8.45;;;4.20;;
56746;SDS011;42623;49.978;9.966;2024-01-06T00:49:18;8.53;;;4.13;;
56746;SDS011;42623;49.978;9.966;2024-01-06T00:49:28;8.03;;;4.00;;
56746;SDS011;42623;49.978;9.966;2024-01-06T00:49:38;6.37;;;3.67;;
56746;SDS011;42623;49.978;9.966;2024-01-06T00:49:48;6.25;;;3.47;;
56746;SDS011;42623;49.978;9.966;2024-01-06T00:49:58;5.90;;;3.43;;
56746;SDS011;42623;49.978;9.966;2024-01-06T00:50:10;6.70;;;4.05;;
56746;SDS011;42623;49.978;9.966;2024-01-06T00:50:20;6.63;;;4.03;;
56746;SDS011;42623;49.978;9.966;2024-01-06T00:50:30;6.80;;;3.93;;
56746;SDS011;42623;49.978;9.966;2024-01-06T00:50:40;7.87;;;3.80;;
56746;SDS011;42623;49.978;9.966;2024-01-06T00:50:50;7.63;;;3.70;;
56746;SDS011;42623;49.978;9.966;2024-01-06T00:51:01;7.60;;;3.70;;
56746;SDS011;42623;49.978;9.966;2024-01-06T00:51:11;6.27;;;3.83;;
56746;SDS011;42623;49.978;9.966;2024-01-06T00:51:21;7.20;;;4.17;;
56746;SDS011;42623;49.978;9.966;2024-01-06T00:51:31;7.68;;;4.05;;
56746;SDS011;42623;49.978;9.966;2024-01-06T00:51:42;8.00;;;3.67;;
56746;SDS011;42623;49.978;9.966;2024-01-06T00:51:52;7.57;;;3.53;;
56746;SDS011;42623;49.978;9.966;2024-01-06T00:52:02;7.13;;;3.70;;
56746;SDS011;42623;49.978;9.966;2024-01-06T00:52:12;6.72;;;3.70;;
56746;SDS011;42623;49.978;9.966;2024-01-06T00:52:22;6.43;;;3.60;;
56746;SDS011;42623;49.978;9.966;2024-01-06T00:52:33;6.32;;;3.60;;
56746;SDS011;42623;49.978;9.966;2024-01-06T00:52:43;6.80;;;3.80;;
56746;SDS011;42623;49.978;9.966;2024-01-06T00:52:53;6.90;;;4.00;;
56746;SDS011;42623;49.978;9.966;2024-01-06T00:53:04;6.77;;;4.00;;
56746;SDS011;42623;49.978;9.966;2024-01-06T00:53:14;7.50;;;3.97;;
56746;SDS011;42623;49.978;9.966;2024-01-06T00:53:24;8.60;;;4.03;;
56746;SDS011;42623;49.978;9.966;2024-01-06T00:53:34;8.90;;;4.27;;
56746;SDS011;42623;49.978;9.966;2024-01-06T00:53:44;7.63;;;4.20;;
56746;SDS011;42623;49.978;9.966;2024-01-06T00:53:55;7.50;;;4.00;;
56746;SDS011;42623;49.978;9.966;2024-01-06T00:54:05;6.97;;;3.67;;
56746;SDS011;42623;49.978;9.966;2024-01-06T00:54:16;7.20;;;3.58;;
56746;SDS011;42623;49.978;9.966;2024-01-06T00:54:26;6.40;;;3.57;;
56746;SDS011;42623;49.978;9.966;2024-01-06T00:54:36;6.80;;;3.80;;
56746;SDS011;42623;49.978;9.966;2024-01-06T00:54:46;6.43;;;3.93;;
56746;SDS011;42623;49.978;9.966;2024-01-06T00:54:57;6.72;;;4.15;;
56746;SDS011;42623;49.978;9.966;2024-01-06T00:55:07;6.17;;;3.80;;
56746;SDS011;42623;49.978;9.966;2024-01-06T00:55:18;6.05;;;3.55;;
56746;SDS011;42623;49.978;9.966;2024-01-06T00:55:28;5.93;;;3.47;;
56746;SDS011;42623;49.978;9.966;2024-01-06T00:55:38;6.23;;;3.60;;
56746;SDS011;42623;49.978;9.966;2024-01-06T00:55:48;7.03;;;3.83;;
56746;SDS011;42623;49.978;9.966;2024-01-06T00:55:59;7.30;;;3.87;;
56746;SDS011;42623;49.978;9.966;2024-01-06T00:56:09;6.90;;;3.63;;
56746;SDS011;42623;49.978;9.966;2024-01-06T00:56:19;6.33;;;3.40;;
56746;SDS011;42623;49.978;9.966;2024-01-06T00:56:29;5.80;;;3.33;;
56746;SDS011;42623;49.978;9.966;2024-01-06T00:56:40;6.30;;;3.67;;
56746;SDS011;42623;49.978;9.966;2024-01-06T00:56:52;6.28;;;3.72;;
56746;SDS011;42623;49.978;9.966;2024-01-06T00:57:03;6.93;;;3.60;;
56746;SDS011;42623;49.978;9.966;2024-01-06T00:57:13;6.57;;;3.38;;
56746;SDS011;42623;49.978;9.966;2024-01-06T00:57:23;6.20;;;3.27;;
56746;SDS011;42623;49.978;9.966;2024-01-06T00:57:34;5.80;;;3.35;;
56746;SDS011;42623;49.978;9.966;2024-01-06T00:57:44;6.10;;;3.57;;
56746;SDS011;42623;49.978;9.966;2024-01-06T00:57:54;7.05;;;3.83;;
56746;SDS011;42623;49.978;9.966;2024-01-06T00:58:05;6.67;;;3.63;;
56746;SDS011;42623;49.978;9.966;2024-01-06T00:58:15;6.80;;;3.53;;
56746;SDS011;42623;49.978;9.966;2024-01-06T00:58:25;6.15;;;3.55;;
56746;SDS011;42623;49.978;9.966;2024-01-06T00:58:35;8.63;;;3.90;;
56746;SDS011;42623;49.978;9.966;2024-01-06T00:58:45;8.60;;;3.80;;
56746;SDS011;42623;49.978;9.966;2024-01-06T00:58:56;9.20;;;3.70;;
56746;SDS011;42623;49.978;9.966;2024-01-06T00:59:06;6.63;;;3.70;;
56746;SDS011;42623;49.978;9.966;2024-01-06T00:59:16;6.53;;;3.70;;
56746;SDS011;42623;49.978;9.966;2024-01-06T00:59:26;6.40;;;3.80;;
56746;SDS011;42623;49.978;9.966;2024-01-06T00:59:37;7.13;;;4.03;;
56746;SDS011;42623;49.978;9.966;2024-01-06T00:59:47;6.70;;;3.90;;
56746;SDS011;42623;49.978;9.966;2024-01-06T00:59:57;6.10;;;3.60;;
56746;SDS011;42623;49.978;9.966;2024-01-06T01:00:07;5.85;;;3.53;;
56746;SDS011;42623;49.978;9.966;2024-01-06T01:00:18;5.70;;;3.40;;
56746;SDS011;42623;49.978;9.966;2024-01-06T01:00:28;6.07;;;3.43;;
56746;SDS011;42623;49.978;9.966;2024-01-06T01:00:38;6.00;;;3.33;;
56746;SDS011;42623;49.978;9.966;2024-01-06T01:00:48;6.63;;;3.63;;
56746;SDS011;42623;49.978;9.966;2024-01-06T01:00:59;6.40;;;3.45;;
56746;SDS011;42623;49.978;9.966;2024-01-06T01:01:10;6.00;;;3.10;;
56746;SDS011;42623;49.978;9.966;2024-01-06T01:01:20;8.10;;;3.23;;
56746;SDS011;42623;49.978;9.966;2024-01-06T01:01:31;8.30;;;3.38;;
56746;SDS011;42623;49.978;9.966;2024-01-06T01:01:41;8.82;;;3.67;;
56746;SDS011;42623;49.978;9.966;2024-01-06T01:01:51;7.10;;;4.00;;
56746;SDS011;42623;49.978;9.966;2024-01-06T01:02:02;7.43;;;3.90;;
56746;SDS011;42623;49.978;9.966;2024-01-06T01:02:12;8.27;;;3.85;;